createdAt,value
2018-05-25T00:01:53.962Z,95236.15
2018-05-25T00:04:22.383Z,95232.82
2018-05-25T00:06:50.418Z,95233.23
2018-05-25T00:09:18.351Z,95233.16
2018-05-25T00:11:46.317Z,95228.95
2018-05-25T00:14:14.286Z,95225.04
2018-05-25T00:16:42.243Z,95221.22
2018-05-25T00:19:10.211Z,95222.81
2018-05-25T00:21:38.178Z,95226.79
2018-05-25T00:24:06.218Z,95225.53
2018-05-25T00:26:34.373Z,95225.47
2018-05-25T00:29:02.412Z,95227.22
2018-05-25T00:31:30.391Z,95230.64
2018-05-25T00:33:58.395Z,95225.70
2018-05-25T00:36:26.335Z,95231.66
2018-05-25T00:38:54.303Z,95232.84
2018-05-25T00:41:22.263Z,95234.86
2018-05-25T00:43:50.282Z,95227.91
2018-05-25T00:46:18.297Z,95231.94
2018-05-25T00:48:46.282Z,95228.88
2018-05-25T00:51:14.278Z,95224.91
2018-05-25T00:53:42.253Z,95234.94
2018-05-25T00:56:10.226Z,95229.34
2018-05-25T00:58:38.199Z,95231.09
2018-05-25T01:01:06.280Z,95221.48
2018-05-25T01:03:34.371Z,95219.16
2018-05-25T01:06:02.704Z,95222.77
2018-05-25T01:08:30.678Z,95220.17
2018-05-25T01:10:58.653Z,95217.56
2018-05-25T01:13:26.643Z,95213.73
2018-05-25T01:15:54.661Z,95209.60
2018-05-25T01:18:22.631Z,95211.05
2018-05-25T01:20:50.606Z,95211.33
2018-05-25T01:23:18.561Z,95206.39
2018-05-25T01:25:46.546Z,95206.16
2018-05-25T01:28:14.597Z,95207.31
2018-05-25T01:30:42.591Z,95210.19
2018-05-25T01:33:10.600Z,95207.16
2018-05-25T01:35:38.599Z,95214.87
2018-05-25T01:38:06.693Z,95207.85
2018-05-25T01:40:34.703Z,95205.53
2018-05-25T01:43:02.990Z,95204.06
2018-05-25T01:45:30.890Z,95211.30
2018-05-25T01:47:58.903Z,95206.69
2018-05-25T01:50:26.926Z,95215.26
2018-05-25T01:52:54.923Z,95209.44
2018-05-25T01:55:22.869Z,95209.59
2018-05-25T01:57:50.922Z,95214.67
2018-05-25T02:00:18.842Z,95210.60
2018-05-25T02:02:46.873Z,95205.77
2018-05-25T02:05:14.895Z,95201.07
2018-05-25T02:07:43.257Z,95210.89
2018-05-25T02:10:11.282Z,95205.88
2018-05-25T02:12:39.319Z,95201.69
2018-05-25T02:15:07.326Z,95200.98
2018-05-25T02:17:35.337Z,95203.58
2018-05-25T02:20:03.440Z,95200.81
2018-05-25T02:22:31.466Z,95197.45
2018-05-25T02:24:59.450Z,95213.02
2018-05-25T02:27:27.471Z,95208.20
2018-05-25T02:29:55.436Z,95212.69
2018-05-25T02:32:23.453Z,95210.09
2018-05-25T02:34:51.453Z,95215.96
2018-05-25T02:37:19.394Z,95220.23
2018-05-25T02:39:47.458Z,95225.13
2018-05-25T02:42:15.543Z,95230.94
2018-05-25T02:44:43.530Z,95239.33
2018-05-25T02:47:11.510Z,95239.63
2018-05-25T02:49:39.462Z,95239.48
2018-05-25T02:52:07.446Z,95239.41
2018-05-25T02:54:35.407Z,95236.41
2018-05-25T02:57:03.398Z,95247.84
2018-05-25T02:59:31.329Z,95250.63
2018-05-25T03:01:59.452Z,95247.89
2018-05-25T03:04:27.406Z,95245.07
2018-05-25T03:06:55.479Z,95245.67
2018-05-25T03:09:23.698Z,95244.27
2018-05-25T03:11:51.670Z,95245.13
2018-05-25T03:14:19.706Z,95252.02
2018-05-25T03:16:47.634Z,95249.41
2018-05-25T03:19:15.656Z,95246.13
2018-05-25T03:21:43.685Z,95251.27
2018-05-25T03:24:11.683Z,95256.59
2018-05-25T03:26:39.667Z,95256.86
2018-05-25T03:29:07.695Z,95263.66
2018-05-25T03:31:35.687Z,95260.26
2018-05-25T03:34:03.638Z,95265.89
2018-05-25T03:36:31.681Z,95265.09
2018-05-25T03:38:59.687Z,95268.39
2018-05-25T03:41:27.689Z,95278.88
2018-05-25T03:43:55.727Z,95273.72
2018-05-25T03:46:23.735Z,95277.06
2018-05-25T03:48:51.703Z,95279.81
2018-05-25T03:51:20.349Z,95277.25
2018-05-25T03:53:48.368Z,95281.34
2018-05-25T03:56:16.366Z,95281.57
2018-05-25T03:58:55.994Z,95288.71
2018-05-25T04:01:35.596Z,95287.20
2018-05-25T04:04:05.310Z,95285.97
2018-05-25T04:06:33.279Z,95282.23
2018-05-25T04:09:01.218Z,95283.56
2018-05-25T04:11:29.386Z,95279.95
2018-05-25T04:13:57.320Z,95258.90
2018-05-25T04:16:25.302Z,95276.50
2018-05-25T04:18:53.299Z,95276.67
2018-05-25T04:21:21.261Z,95277.41
2018-05-25T04:23:49.223Z,95280.51
2018-05-25T04:26:17.579Z,95283.36
2018-05-25T04:28:45.593Z,95289.20
2018-05-25T04:31:13.590Z,95277.36
2018-05-25T04:33:41.719Z,95270.13
2018-05-25T04:36:09.706Z,95271.33
2018-05-25T04:38:37.674Z,95270.25
2018-05-25T04:41:06.427Z,95268.64
2018-05-25T04:43:34.442Z,95265.20
2018-05-25T04:46:02.579Z,95272.28
2018-05-25T04:48:30.552Z,95277.91
2018-05-25T04:50:58.556Z,95265.74
2018-05-25T04:53:26.470Z,95265.98
2018-05-25T04:55:54.490Z,95264.20
2018-05-25T04:58:22.507Z,95268.97
2018-05-25T05:00:50.483Z,95272.75
2018-05-25T05:03:18.510Z,95278.48
2018-05-25T05:05:46.533Z,95272.66
2018-05-25T05:08:14.433Z,95271.90
2018-05-25T05:10:42.435Z,95270.18
2018-05-25T05:13:10.687Z,95273.23
2018-05-25T05:15:38.682Z,95271.83
2018-05-25T05:18:06.674Z,95282.63
2018-05-25T05:20:34.693Z,95290.67
2018-05-25T05:23:02.729Z,95292.46
2018-05-25T05:25:30.646Z,95289.24
2018-05-25T05:27:58.554Z,95287.20
2018-05-25T05:30:26.585Z,95287.15
2018-05-25T05:32:54.598Z,95278.93
2018-05-25T05:35:22.630Z,95299.38
2018-05-25T05:37:50.603Z,95282.87
2018-05-25T05:40:18.675Z,95280.47
2018-05-25T05:42:46.657Z,95278.13
2018-05-25T05:45:14.622Z,95280.08
2018-05-25T05:47:42.630Z,95281.20
2018-05-25T05:50:10.610Z,95288.25
2018-05-25T05:52:38.559Z,95280.43
2018-05-25T05:55:06.690Z,95280.38
2018-05-25T05:57:34.610Z,95276.41
2018-05-25T06:00:02.710Z,95271.94
2018-05-25T06:02:30.782Z,95275.16
2018-05-25T06:04:59.854Z,95274.02
2018-05-25T06:07:27.987Z,95269.22
2018-05-25T06:09:56.017Z,95269.31
2018-05-25T06:12:24.070Z,95267.10
2018-05-25T06:14:52.367Z,95261.66
2018-05-25T06:17:20.511Z,95260.37
2018-05-25T06:19:48.487Z,95254.23
2018-05-25T06:22:16.515Z,95254.30
2018-05-25T06:24:44.573Z,95254.95
2018-05-25T06:27:12.600Z,95248.01
2018-05-25T06:29:40.660Z,95248.22
2018-05-25T06:32:08.665Z,95244.34
2018-05-25T06:34:36.700Z,95240.48
2018-05-25T06:40:00.584Z,95236.08
2018-05-25T06:42:28.541Z,95238.53
2018-05-25T06:44:57.204Z,95234.63
2018-05-25T06:47:25.264Z,95233.54
2018-05-25T06:49:55.568Z,95229.26
2018-05-25T06:52:23.566Z,95228.45
2018-05-25T06:54:51.752Z,95228.52
2018-05-25T06:57:19.810Z,95235.41
2018-05-25T06:59:47.840Z,95229.95
2018-05-25T07:02:15.944Z,95229.91
2018-05-25T07:04:44.000Z,95225.56
2018-05-25T07:07:12.005Z,95222.84
2018-05-25T07:09:40.009Z,95214.50
2018-05-25T07:12:08.062Z,95208.95
2018-05-25T07:14:36.129Z,95203.48
2018-05-25T07:17:05.197Z,95199.72
2018-05-25T07:19:34.125Z,95202.47
2018-05-25T07:22:02.126Z,95195.73
2018-05-25T07:24:30.692Z,95210.05
2018-05-25T07:26:58.724Z,95207.84
2018-05-25T07:29:26.744Z,95209.83
2018-05-25T07:31:54.878Z,95206.59
2018-05-25T07:34:22.941Z,95205.56
2018-05-25T07:36:50.937Z,95210.79
2018-05-25T07:39:19.267Z,95208.27
2018-05-25T07:41:47.359Z,95116.23
2018-05-25T07:44:15.353Z,95200.51
2018-05-25T07:46:43.378Z,95206.03
2018-05-25T07:49:11.405Z,95203.67
2018-05-25T07:51:39.553Z,95174.50
2018-05-25T07:54:07.547Z,95201.00
2018-05-25T07:56:35.654Z,95201.02
2018-05-25T07:59:03.642Z,95202.74
2018-05-25T08:01:31.559Z,95202.84
2018-05-25T08:03:59.509Z,95194.52
2018-05-25T08:06:27.607Z,95198.30
2018-05-25T08:08:55.617Z,95189.38
2018-05-25T08:11:23.628Z,95188.38
2018-05-25T08:13:51.617Z,95185.84
2018-05-25T08:16:19.624Z,95188.85
2018-05-25T08:18:47.825Z,95191.05
2018-05-25T08:21:15.853Z,95185.70
2018-05-25T08:23:43.821Z,95185.98
2018-05-25T08:26:11.833Z,95185.42
2018-05-25T08:28:39.942Z,95167.83
2018-05-25T08:31:09.220Z,95181.10
2018-05-25T08:33:37.467Z,95179.83
2018-05-25T08:36:06.728Z,95183.13
2018-05-25T08:41:38.662Z,95179.58
2018-05-25T08:44:06.749Z,95177.27
2018-05-25T08:46:36.207Z,95181.33
2018-05-25T08:49:04.390Z,95177.50
2018-05-25T08:51:32.537Z,95173.17
2018-05-25T08:54:00.619Z,95178.18
2018-05-25T08:56:28.674Z,95175.64
2018-05-25T08:58:56.682Z,95163.61
2018-05-25T09:01:24.699Z,95164.77
2018-05-25T09:03:52.712Z,95159.63
2018-05-25T09:06:20.698Z,95155.92
2018-05-25T09:08:48.607Z,95164.38
2018-05-25T09:11:16.697Z,95157.77
2018-05-25T09:13:44.768Z,95144.45
2018-05-25T09:16:12.829Z,95159.57
2018-05-25T09:18:40.875Z,95162.92
2018-05-25T09:21:08.900Z,95160.66
2018-05-25T09:23:36.996Z,95151.34
2018-05-25T09:26:04.980Z,95155.61
2018-05-25T09:28:33.047Z,95153.49
2018-05-25T09:31:01.054Z,95150.58
2018-05-25T09:33:29.019Z,95144.20
2018-05-25T09:35:57.034Z,95149.09
2018-05-25T09:38:25.043Z,95150.27
2018-05-25T09:40:53.142Z,95146.03
2018-05-25T09:43:21.393Z,95143.07
2018-05-25T09:45:49.535Z,95140.08
2018-05-25T09:48:17.574Z,95141.76
2018-05-25T09:50:45.582Z,95145.02
2018-05-25T09:53:13.584Z,95142.66
2018-05-25T09:55:41.560Z,95147.06
2018-05-25T09:58:09.599Z,95134.78
2018-05-25T10:00:37.548Z,95150.06
2018-05-25T10:03:05.601Z,95139.43
2018-05-25T10:05:33.668Z,95136.29
2018-05-25T10:08:01.715Z,95136.69
2018-05-25T10:10:29.739Z,95140.30
2018-05-25T10:12:57.754Z,95138.00
2018-05-25T10:15:25.882Z,95141.60
2018-05-25T10:17:53.951Z,95143.01
2018-05-25T10:20:22.015Z,95136.82
2018-05-25T10:22:50.083Z,95134.41
2018-05-25T10:25:18.123Z,95139.98
2018-05-25T10:27:46.145Z,95133.66
2018-05-25T10:30:14.171Z,95126.92
2018-05-25T10:32:42.327Z,95125.38
2018-05-25T10:35:10.363Z,95120.77
2018-05-25T10:37:38.491Z,95120.67
2018-05-25T10:40:06.545Z,95119.27
2018-05-25T10:42:34.539Z,95115.44
2018-05-25T10:45:02.900Z,95115.76
2018-05-25T10:47:30.892Z,95106.56
2018-05-25T10:49:58.933Z,95097.99
2018-05-25T10:52:26.975Z,95095.92
2018-05-25T10:54:55.050Z,95100.91
2018-05-25T10:57:23.102Z,95113.89
2018-05-25T10:59:51.276Z,95116.98
2018-05-25T11:02:19.332Z,95125.61
2018-05-25T11:04:47.379Z,95121.98
2018-05-25T11:07:15.380Z,95122.02
2018-05-25T11:09:43.440Z,95120.00
2018-05-25T11:12:11.547Z,95135.30
2018-05-25T11:14:39.641Z,95161.66
2018-05-25T11:17:07.766Z,95166.59
2018-05-25T11:19:35.815Z,95185.87
2018-05-25T11:22:03.863Z,95191.53
2018-05-25T11:24:31.926Z,95206.73
2018-05-25T11:26:59.971Z,95219.12
2018-05-25T11:29:28.045Z,95221.36
2018-05-25T11:31:56.119Z,95241.52
2018-05-25T11:34:24.953Z,95251.39
2018-05-25T11:36:52.973Z,95258.50
2018-05-25T11:39:21.039Z,95253.61
2018-05-25T11:41:49.113Z,95247.70
2018-05-25T11:44:17.174Z,95256.27
2018-05-25T11:46:45.723Z,95256.36
2018-05-25T11:49:13.743Z,95252.37
2018-05-25T11:51:41.777Z,95253.96
2018-05-25T11:54:09.816Z,95247.66
2018-05-25T11:56:37.852Z,95237.41
2018-05-25T11:59:05.798Z,95230.00
2018-05-25T12:01:33.799Z,95229.71
2018-05-25T12:04:01.837Z,95227.51
2018-05-25T12:06:29.886Z,95220.51
2018-05-25T12:08:57.914Z,95208.81
2018-05-25T12:11:25.923Z,95198.13
2018-05-25T12:13:54.010Z,95198.41
2018-05-25T12:16:22.072Z,95195.84
2018-05-25T12:18:50.084Z,95189.48
2018-05-25T12:21:18.108Z,95177.78
2018-05-25T12:23:46.158Z,95175.98
2018-05-25T12:26:14.162Z,95175.67
2018-05-25T12:28:42.258Z,95164.03
2018-05-25T12:31:10.265Z,95188.75
2018-05-25T12:33:38.369Z,95173.74
2018-05-25T12:36:06.808Z,95193.09
2018-05-25T12:38:34.773Z,95197.77
2018-05-25T12:41:02.833Z,95199.91
2018-05-25T12:43:30.883Z,95196.77
2018-05-25T12:45:58.898Z,95197.03
2018-05-25T12:48:27.307Z,95198.97
2018-05-25T12:50:55.343Z,95199.49
2018-05-25T12:53:23.377Z,95205.17
2018-05-25T12:55:51.454Z,95200.24
2018-05-25T12:58:19.483Z,95202.75
2018-05-25T13:00:47.527Z,95203.95
2018-05-25T13:03:15.520Z,95201.43
2018-05-25T13:05:43.549Z,95199.61
2018-05-25T13:08:11.543Z,95196.79
2018-05-25T13:10:39.575Z,95207.11
2018-05-25T13:13:07.605Z,95205.19
2018-05-25T13:15:35.720Z,95208.13
2018-05-25T13:18:04.353Z,95198.66
2018-05-25T13:20:32.943Z,95194.27
2018-05-25T13:23:01.602Z,95195.50
2018-05-25T13:25:30.007Z,95173.85
2018-05-25T13:27:58.574Z,95198.14
2018-05-25T13:30:27.256Z,95192.88
2018-05-25T13:32:55.286Z,95194.50
2018-05-25T13:35:23.328Z,95194.09
2018-05-25T13:37:51.393Z,95194.74
2018-05-25T13:40:19.429Z,95194.10
2018-05-25T13:42:47.508Z,95197.27
2018-05-25T13:45:15.640Z,95191.52
2018-05-25T13:47:44.303Z,95197.31
2018-05-25T13:50:12.595Z,95196.97
2018-05-25T13:52:40.656Z,95202.29
2018-05-25T13:55:16.015Z,95194.13
2018-05-25T13:57:45.341Z,95184.94
2018-05-25T14:00:15.733Z,95188.97
2018-05-25T14:02:44.146Z,95184.37
2018-05-25T14:05:12.200Z,95190.12
2018-05-25T14:07:41.150Z,95191.63
2018-05-25T14:10:09.206Z,95181.44
2018-05-25T14:12:37.253Z,95183.52
2018-05-25T14:15:05.330Z,95179.68
2018-05-25T14:17:33.374Z,95172.33
2018-05-25T14:20:01.413Z,95184.91
2018-05-25T14:22:29.478Z,95185.08
2018-05-25T14:24:57.644Z,95180.90
2018-05-25T14:27:25.670Z,95181.80
2018-05-25T14:29:53.685Z,95176.50
2018-05-25T14:32:21.719Z,95183.27
2018-05-25T14:34:49.829Z,95182.91
2018-05-25T14:37:17.903Z,95179.88
2018-05-25T14:39:46.028Z,95177.98
2018-05-25T14:42:14.051Z,95183.47
2018-05-25T14:44:42.006Z,95189.53
2018-05-25T14:47:10.041Z,95186.19
2018-05-25T14:49:38.047Z,95180.55
2018-05-25T14:52:07.005Z,95183.02
2018-05-25T14:54:35.011Z,95187.08
2018-05-25T14:57:03.045Z,95189.45
2018-05-25T14:59:31.045Z,95188.81
2018-05-25T15:01:59.739Z,95187.39
2018-05-25T15:04:27.802Z,95183.73
2018-05-25T15:06:55.849Z,95183.59
2018-05-25T15:09:23.891Z,95173.62
2018-05-25T15:11:51.935Z,95177.15
2018-05-25T15:14:19.906Z,95173.81
2018-05-25T15:16:47.902Z,95176.33
2018-05-25T15:19:15.958Z,95160.94
2018-05-25T15:21:43.963Z,95152.66
2018-05-25T15:24:12.016Z,95148.88
2018-05-25T15:26:40.080Z,95157.01
2018-05-25T15:29:08.083Z,95155.56
2018-05-25T15:31:36.135Z,95153.63
2018-05-25T15:34:04.162Z,95145.28
2018-05-25T15:36:32.252Z,95152.80
2018-05-25T15:39:00.282Z,95150.34
2018-05-25T15:41:28.300Z,95157.59
2018-05-25T15:43:56.293Z,95167.60
2018-05-25T15:46:24.356Z,95172.31
2018-05-25T15:48:52.384Z,95170.14
2018-05-25T15:51:20.404Z,95169.19
2018-05-25T15:53:48.560Z,95172.86
2018-05-25T15:56:16.659Z,95168.56
2018-05-25T15:58:44.711Z,95176.52
2018-05-25T16:01:12.798Z,95181.93
2018-05-25T16:03:40.818Z,95175.72
2018-05-25T16:06:08.810Z,95188.28
2018-05-25T16:08:36.920Z,95194.00
2018-05-25T16:11:05.039Z,95195.47
2018-05-25T16:13:33.067Z,95195.14
2018-05-25T16:16:01.128Z,95200.61
2018-05-25T16:18:29.195Z,95204.33
2018-05-25T16:20:57.156Z,95224.77
2018-05-25T16:23:25.633Z,95247.81
2018-05-25T16:25:53.734Z,95258.33
2018-05-25T16:28:22.893Z,95261.28
2018-05-25T16:30:51.027Z,95262.52
2018-05-25T16:33:19.104Z,95281.48
2018-05-25T16:35:47.223Z,95290.97
2018-05-25T16:38:15.303Z,95309.44
2018-05-25T16:40:43.351Z,95320.20
2018-05-25T16:43:11.398Z,95326.34
2018-05-25T16:45:39.514Z,95324.66
2018-05-25T16:48:07.631Z,95322.49
2018-05-25T16:50:35.790Z,95332.64
2018-05-25T16:53:03.936Z,95328.60
2018-05-25T16:55:32.434Z,95330.77
2018-05-25T16:58:00.450Z,95334.23
2018-05-25T17:00:28.583Z,95336.55
2018-05-25T17:02:56.619Z,95334.21
2018-05-25T17:05:24.673Z,95348.30
2018-05-25T17:07:53.443Z,95345.63
2018-05-25T17:10:21.444Z,95349.67
2018-05-25T17:12:49.530Z,95351.58
2018-05-25T17:15:17.529Z,95353.67
2018-05-25T17:17:45.560Z,95356.67
2018-05-25T17:20:13.591Z,95356.64
2018-05-25T17:22:41.596Z,95361.02
2018-05-25T17:25:09.587Z,95350.30
2018-05-25T17:27:37.603Z,95358.20
2018-05-25T17:30:05.672Z,95358.11
2018-05-25T17:32:33.704Z,95361.95
2018-05-25T17:35:01.734Z,95362.88
2018-05-25T17:37:29.833Z,95367.47
2018-05-25T17:39:57.854Z,95364.75
2018-05-25T17:42:25.987Z,95377.23
2018-05-25T17:44:53.991Z,95374.17
2018-05-25T17:47:21.988Z,95377.44
2018-05-25T17:49:49.950Z,95372.31
2018-05-25T17:52:18.035Z,95372.84
2018-05-25T17:54:45.977Z,95377.78
2018-05-25T17:57:14.473Z,95383.33
2018-05-25T17:59:42.497Z,95374.39
2018-05-25T18:02:10.555Z,95374.90
2018-05-25T18:04:38.608Z,95383.70
2018-05-25T18:07:06.517Z,95391.13
2018-05-25T18:09:34.557Z,95405.00
2018-05-25T18:12:02.566Z,95402.55
2018-05-25T18:14:30.537Z,95401.61
2018-05-25T18:16:58.563Z,95407.00
2018-05-25T18:19:26.590Z,95405.64
2018-05-25T18:21:54.604Z,95414.48
2018-05-25T18:24:22.642Z,95417.12
2018-05-25T18:26:50.614Z,95420.19
2018-05-25T18:29:18.625Z,95424.25
2018-05-25T18:31:46.786Z,95427.58
2018-05-25T18:34:14.813Z,95434.00
2018-05-25T18:36:42.840Z,95437.66
2018-05-25T18:39:10.827Z,95445.30
2018-05-25T18:41:38.783Z,95452.93
2018-05-25T18:44:06.885Z,95453.47
2018-05-25T18:46:34.817Z,95457.72
2018-05-25T18:49:02.867Z,95470.63
2018-05-25T18:51:30.922Z,95471.88
2018-05-25T18:54:10.550Z,95482.11
2018-05-25T18:56:39.465Z,95483.72
2018-05-25T18:59:07.726Z,95482.64
2018-05-25T19:01:35.699Z,95491.42
2018-05-25T19:04:03.726Z,95477.34
2018-05-25T19:06:31.795Z,95514.22
2018-05-25T19:08:59.784Z,95502.58
2018-05-25T19:11:27.803Z,95501.51
2018-05-25T19:13:55.838Z,95496.00
2018-05-25T19:16:23.854Z,95506.23
2018-05-25T19:18:52.007Z,95507.70
2018-05-25T19:21:20.032Z,95503.95
2018-05-25T19:23:48.003Z,95507.45
2018-05-25T19:26:16.116Z,95510.50
2018-05-25T19:28:44.239Z,95508.73
2018-05-25T19:31:12.218Z,95521.05
2018-05-25T19:33:40.091Z,95528.41
2018-05-25T19:36:08.193Z,95521.86
2018-05-25T19:38:36.346Z,95518.06
2018-05-25T19:41:04.341Z,95515.38
2018-05-25T19:43:32.381Z,95513.02
2018-05-25T19:46:00.401Z,95506.93
2018-05-25T19:48:28.381Z,95508.13
2018-05-25T19:50:56.389Z,95502.59
2018-05-25T19:53:24.452Z,95505.53
2018-05-25T19:55:52.417Z,95505.00
2018-05-25T19:58:20.437Z,95513.45
2018-05-25T20:00:48.670Z,95506.27
2018-05-25T20:03:16.698Z,95507.83
2018-05-25T20:05:44.745Z,95503.81
2018-05-25T20:08:12.718Z,95497.55
2018-05-25T20:10:40.715Z,95498.80
2018-05-25T20:13:08.823Z,95498.01
2018-05-25T20:15:36.946Z,95504.09
2018-05-25T20:18:05.053Z,95503.50
2018-05-25T20:20:33.107Z,95499.97
2018-05-25T20:23:01.091Z,95497.19
2018-05-25T20:25:29.092Z,95489.52
2018-05-25T20:27:57.047Z,95484.76
2018-05-25T20:30:25.074Z,95485.30
2018-05-25T20:32:57.201Z,95481.52
2018-05-25T20:35:25.202Z,95470.05
2018-05-25T20:37:53.166Z,95469.45
2018-05-25T20:40:21.124Z,95470.69
2018-05-25T20:42:49.119Z,95467.27
2018-05-25T20:45:17.107Z,95465.61
2018-05-25T20:47:45.084Z,95471.02
2018-05-25T20:50:13.036Z,95482.80
2018-05-25T20:52:41.023Z,95487.05
2018-05-25T20:55:09.065Z,95498.47
2018-05-25T20:57:37.083Z,95506.05
2018-05-25T21:00:05.117Z,95509.26
2018-05-25T21:02:33.392Z,95502.86
2018-05-25T21:05:01.477Z,95482.62
2018-05-25T21:07:29.467Z,95479.63
2018-05-25T21:09:57.516Z,95469.55
2018-05-25T21:12:25.617Z,95484.05
2018-05-25T21:14:53.703Z,95487.69
2018-05-25T21:17:22.607Z,95496.30
2018-05-25T21:19:50.557Z,95494.34
2018-05-25T21:22:18.556Z,95503.49
2018-05-25T21:24:46.550Z,95493.02
2018-05-25T21:27:14.564Z,95489.64
2018-05-25T21:29:42.573Z,95491.80
2018-05-25T21:32:10.631Z,95487.23
2018-05-25T21:34:38.646Z,95496.84
2018-05-25T21:37:06.640Z,95497.09
2018-05-25T21:39:34.641Z,95499.62
2018-05-25T21:42:02.631Z,95495.17
2018-05-25T21:44:30.656Z,95497.75
2018-05-25T21:46:58.658Z,95498.64
2018-05-25T21:49:26.637Z,95500.51
2018-05-25T21:51:54.669Z,95490.30
2018-05-25T21:54:22.661Z,95491.72
2018-05-25T21:56:50.779Z,95489.45
2018-05-25T21:59:18.754Z,95488.28
2018-05-25T22:01:46.795Z,95484.03
2018-05-25T22:04:14.872Z,95484.36
2018-05-25T22:06:42.867Z,95485.78
2018-05-25T22:09:10.849Z,95482.50
2018-05-25T22:11:38.897Z,95494.16
2018-05-25T22:14:06.997Z,95490.55
2018-05-25T22:16:35.134Z,95492.86
2018-05-25T22:19:03.030Z,95493.38
2018-05-25T22:21:30.998Z,95500.31
2018-05-25T22:23:59.019Z,95496.38
2018-05-25T22:26:27.076Z,95501.75
2018-05-25T22:28:55.088Z,95504.91
2018-05-25T22:31:23.066Z,95498.58
2018-05-25T22:33:51.051Z,95490.47
2018-05-25T22:36:19.019Z,95483.56
2018-05-25T22:38:47.071Z,95485.80
2018-05-25T22:41:15.083Z,95486.36
2018-05-25T22:43:54.713Z,95388.09
2018-05-25T22:46:35.264Z,95483.98
2018-05-25T22:49:14.922Z,95482.33
2018-05-25T22:51:54.693Z,95480.03
2018-05-25T22:54:36.118Z,95477.44
2018-05-25T22:57:04.084Z,95477.58
2018-05-25T22:59:32.115Z,95473.75
2018-05-25T23:02:00.139Z,95470.83
2018-05-25T23:04:28.904Z,95477.34
2018-05-25T23:06:56.825Z,95476.15
2018-05-25T23:09:24.900Z,95476.26
2018-05-25T23:11:52.893Z,95479.12
2018-05-25T23:14:20.859Z,95473.45
2018-05-25T23:16:48.845Z,95473.22
2018-05-25T23:19:16.926Z,95475.15
2018-05-25T23:21:45.041Z,95391.84
2018-05-25T23:24:12.952Z,95481.41
2018-05-25T23:26:41.019Z,95482.90
2018-05-25T23:29:08.990Z,95485.52
2018-05-25T23:31:37.002Z,95486.13
2018-05-25T23:34:04.966Z,95479.78
2018-05-25T23:36:32.903Z,95482.97
2018-05-25T23:39:00.914Z,95482.94
2018-05-25T23:41:28.929Z,95487.94
2018-05-25T23:43:56.910Z,95489.84
2018-05-25T23:46:24.943Z,95482.87
2018-05-25T23:48:52.975Z,95481.17
2018-05-25T23:51:20.969Z,95467.25
2018-05-25T23:53:48.999Z,95469.75
2018-05-25T23:56:17.051Z,95467.03
2018-05-25T23:58:45.068Z,95471.16
